Terminal Aerodrome Forecast
Issued by NWS Hastings, NE

Current Version | Previous Version | Text Only | Print | Product List | Glossary On
Versions: 1 2 3 4 5 6 7 8 9 10 11 12 13 14 15 16 17 18 19 20 21 22 23
000
FTUS45 KGID 060158 AAA
TAFEAR
TAF AMD
KEAR 060158Z 0602/0624 15011KT P6SM SCT035 BKN080
     FM060400 15011KT 5SM -SHRA OVC025
     FM060800 15011KT 2SM -SHRA OVC004
     FM061500 14014KT 4SM BR OVC010
     FM062000 15020G29KT P6SM OVC020
      AMD LTD TO CLD VIS AND WIND=

USA.gov is the U.S. government's official web portal to all federal, state and local government web resources and services.